createdAt,value
2018-08-10T00:00:26.821Z,21.40
2018-08-10T00:02:55.372Z,21.40
2018-08-10T00:05:23.950Z,21.40
2018-08-10T00:07:52.481Z,21.30
2018-08-10T00:10:20.992Z,21.30
2018-08-10T00:12:49.519Z,21.30
2018-08-10T00:15:18.016Z,21.30
2018-08-10T00:17:46.573Z,21.30
2018-08-10T00:20:16.117Z,21.20
2018-08-10T00:22:45.410Z,21.20
2018-08-10T00:25:18.277Z,21.10
2018-08-10T00:27:46.941Z,21.00
2018-08-10T00:30:17.019Z,21.00
2018-08-10T00:32:46.887Z,20.90
2018-08-10T00:35:15.428Z,20.90
2018-08-10T00:37:44.841Z,20.90
2018-08-10T00:40:17.412Z,20.80
2018-08-10T00:42:46.075Z,20.80
2018-08-10T00:45:15.571Z,20.80
2018-08-10T00:47:44.685Z,20.70
2018-08-10T00:50:14.327Z,20.60
2018-08-10T00:52:43.699Z,20.60
2018-08-10T00:55:13.684Z,20.60
2018-08-10T00:57:42.626Z,20.60
2018-08-10T01:00:13.199Z,20.50
2018-08-10T01:03:34.011Z,20.50
2018-08-10T01:06:02.581Z,20.40
2018-08-10T01:08:31.057Z,20.40
2018-08-10T01:10:59.562Z,20.40
2018-08-10T01:13:28.124Z,20.40
2018-08-10T01:15:56.620Z,20.40
2018-08-10T01:18:25.128Z,20.50
2018-08-10T01:20:53.628Z,20.40
2018-08-10T01:23:22.074Z,20.40
2018-08-10T01:25:50.568Z,20.40
2018-08-10T01:28:19.055Z,20.30
2018-08-10T01:30:47.576Z,20.30
2018-08-10T01:33:16.051Z,20.30
2018-08-10T01:35:44.521Z,20.30
2018-08-10T01:38:13.008Z,20.30
2018-08-10T01:40:41.522Z,20.20
2018-08-10T01:43:10.005Z,20.20
2018-08-10T01:45:38.560Z,20.20
2018-08-10T01:48:07.118Z,20.20
2018-08-10T01:50:35.593Z,20.20
2018-08-10T01:53:04.178Z,20.20
2018-08-10T01:55:32.715Z,20.10
2018-08-10T01:58:01.228Z,20.10
2018-08-10T02:00:29.864Z,20.00
2018-08-10T02:02:58.322Z,19.90
2018-08-10T02:05:26.918Z,19.80
2018-08-10T02:07:55.442Z,19.70
2018-08-10T02:10:23.935Z,19.60
2018-08-10T02:12:57.051Z,19.50
2018-08-10T02:15:25.571Z,19.30
2018-08-10T02:17:54.068Z,19.20
2018-08-10T02:20:24.170Z,19.20
2018-08-10T02:22:52.700Z,19.10
2018-08-10T02:25:22.356Z,19.10
2018-08-10T02:27:51.636Z,19.00
2018-08-10T02:30:21.266Z,19.00
2018-08-10T02:32:50.383Z,19.00
2018-08-10T02:35:18.852Z,18.90
2018-08-10T02:37:47.320Z,18.80
2018-08-10T02:40:18.741Z,18.80
2018-08-10T02:42:48.173Z,18.70
2018-08-10T02:45:17.062Z,18.60
2018-08-10T02:47:46.320Z,18.50
2018-08-10T02:50:15.072Z,18.50
2018-08-10T02:52:43.774Z,18.50
2018-08-10T02:55:12.765Z,18.40
2018-08-10T02:57:41.658Z,18.30
2018-08-10T03:00:12.096Z,18.30
2018-08-10T03:02:40.902Z,18.40
2018-08-10T03:05:10.211Z,18.40
2018-08-10T03:07:38.997Z,18.40
2018-08-10T03:10:09.003Z,18.40
2018-08-10T03:12:37.603Z,18.30
2018-08-10T03:15:08.318Z,18.30
2018-08-10T03:17:36.782Z,18.30
2018-08-10T03:20:06.006Z,18.20
2018-08-10T03:22:34.709Z,18.10
2018-08-10T03:25:03.290Z,18.00
2018-08-10T03:27:31.736Z,17.90
2018-08-10T03:30:00.297Z,17.80
2018-08-10T03:32:28.810Z,17.80
2018-08-10T03:34:57.290Z,17.70
2018-08-10T03:37:25.782Z,17.80
2018-08-10T03:39:54.298Z,17.80
2018-08-10T03:42:22.802Z,17.70
2018-08-10T03:44:51.322Z,17.80
2018-08-10T03:47:19.795Z,17.80
2018-08-10T03:49:48.293Z,17.80
2018-08-10T03:52:16.851Z,17.70
2018-08-10T03:54:45.443Z,17.70
2018-08-10T03:57:13.991Z,17.70
2018-08-10T03:59:42.571Z,17.60
2018-08-10T04:02:11.233Z,17.60
2018-08-10T04:04:39.748Z,17.60
2018-08-10T04:07:08.213Z,17.50
2018-08-10T04:09:36.706Z,17.50
2018-08-10T04:12:05.774Z,17.50
2018-08-10T04:14:34.310Z,17.50
2018-08-10T04:17:02.776Z,17.50
2018-08-10T04:19:31.278Z,17.50
2018-08-10T04:21:59.900Z,17.60
2018-08-10T04:24:28.549Z,17.70
2018-08-10T04:26:57.058Z,17.70
2018-08-10T04:29:25.678Z,17.70
2018-08-10T04:31:54.054Z,17.60
2018-08-10T04:34:22.521Z,17.60
2018-08-10T04:36:51.083Z,17.60
2018-08-10T04:39:19.582Z,17.70
2018-08-10T04:41:48.046Z,17.70
2018-08-10T04:44:16.520Z,17.70
2018-08-10T04:46:45.017Z,17.60
2018-08-10T04:49:13.570Z,17.60
2018-08-10T04:51:42.057Z,17.60
2018-08-10T04:54:10.604Z,17.60
2018-08-10T04:56:39.160Z,17.50
2018-08-10T04:59:07.704Z,17.50
2018-08-10T05:01:36.210Z,17.50
2018-08-10T05:04:04.792Z,17.50
2018-08-10T05:06:33.254Z,17.50
2018-08-10T05:09:01.695Z,17.50
2018-08-10T05:11:30.194Z,17.50
2018-08-10T05:13:58.763Z,17.50
2018-08-10T05:16:27.262Z,17.60
2018-08-10T05:18:56.390Z,17.50
2018-08-10T05:21:24.849Z,17.50
2018-08-10T05:23:53.339Z,17.60
2018-08-10T05:26:21.895Z,17.60
2018-08-10T05:28:50.441Z,17.60
2018-08-10T05:31:18.975Z,17.60
2018-08-10T05:33:47.833Z,17.60
2018-08-10T05:36:16.906Z,17.50
2018-08-10T05:38:45.413Z,17.50
2018-08-10T05:41:13.927Z,17.50
2018-08-10T05:43:42.413Z,17.50
2018-08-10T05:46:10.985Z,17.60
2018-08-10T05:48:40.781Z,17.70
2018-08-10T05:51:11.406Z,17.70
2018-08-10T05:53:40.091Z,17.80
2018-08-10T05:56:08.999Z,17.80
2018-08-10T05:58:37.790Z,17.80
2018-08-10T06:01:06.880Z,17.90
2018-08-10T06:03:35.697Z,17.90
2018-08-10T06:06:04.162Z,17.90
2018-08-10T06:08:32.765Z,17.90
2018-08-10T06:11:01.322Z,17.90
2018-08-10T06:13:29.822Z,17.90
2018-08-10T06:15:58.391Z,17.90
2018-08-10T06:18:26.883Z,17.90
2018-08-10T06:20:55.414Z,17.80
2018-08-10T06:23:23.880Z,17.80
2018-08-10T06:25:52.354Z,17.90
2018-08-10T06:28:20.913Z,17.90
2018-08-10T06:30:49.329Z,17.90
2018-08-10T06:33:17.774Z,17.90
2018-08-10T06:35:46.327Z,17.90
2018-08-10T06:38:14.777Z,17.90
2018-08-10T06:40:44.026Z,17.90
2018-08-10T06:43:12.545Z,18.00
2018-08-10T06:45:41.059Z,18.00
2018-08-10T06:48:09.551Z,18.00
2018-08-10T06:50:38.041Z,18.00
2018-08-10T06:53:06.773Z,18.00
2018-08-10T06:55:35.305Z,18.10
2018-08-10T06:58:03.849Z,18.10
2018-08-10T07:00:32.440Z,18.20
2018-08-10T07:03:00.871Z,18.20
2018-08-10T07:05:29.348Z,18.20
2018-08-10T07:07:57.879Z,18.20
2018-08-10T07:10:26.574Z,18.20
2018-08-10T07:12:55.093Z,18.20
2018-08-10T07:15:23.522Z,18.20
2018-08-10T07:17:52.336Z,18.20
2018-08-10T07:20:21.011Z,18.20
2018-08-10T07:22:49.476Z,18.20
2018-08-10T07:25:17.982Z,18.20
2018-08-10T07:27:46.538Z,18.30
2018-08-10T07:30:15.058Z,18.30
2018-08-10T07:32:43.515Z,18.20
2018-08-10T07:35:12.072Z,18.10
2018-08-10T07:37:40.660Z,18.10
2018-08-10T07:40:09.157Z,18.10
2018-08-10T07:42:37.656Z,18.10
2018-08-10T07:45:06.433Z,18.10
2018-08-10T07:47:34.916Z,18.00
2018-08-10T07:50:03.434Z,18.00
2018-08-10T07:52:31.954Z,18.00
2018-08-10T07:55:00.433Z,17.90
2018-08-10T07:57:29.000Z,17.80
2018-08-10T07:59:57.507Z,17.60
2018-08-10T08:02:26.010Z,17.40
2018-08-10T08:04:54.610Z,17.10
2018-08-10T08:07:23.084Z,17.00
2018-08-10T08:09:51.727Z,16.80
2018-08-10T08:12:20.575Z,16.70
2018-08-10T08:14:49.116Z,16.50
2018-08-10T08:17:17.830Z,16.40
2018-08-10T08:19:46.781Z,16.30
2018-08-10T08:22:17.427Z,16.30
2018-08-10T08:24:46.032Z,16.20
2018-08-10T08:27:15.915Z,16.10
2018-08-10T08:29:44.429Z,16.10
2018-08-10T08:32:13.144Z,16.00
2018-08-10T08:34:41.896Z,16.00
2018-08-10T08:37:11.006Z,15.90
2018-08-10T08:40:50.677Z,15.90
2018-08-10T08:45:50.496Z,16.00
2018-08-10T08:48:19.357Z,16.00
2018-08-10T08:50:49.604Z,16.00
2018-08-10T08:53:18.177Z,16.00
2018-08-10T08:55:50.926Z,16.00
2018-08-10T08:58:19.651Z,16.00
2018-08-10T09:00:48.252Z,16.00
2018-08-10T09:03:28.543Z,16.00
2018-08-10T09:05:57.584Z,16.00
2018-08-10T09:08:26.135Z,16.00
2018-08-10T09:10:55.974Z,16.00
2018-08-10T09:13:25.215Z,15.90
2018-08-10T09:15:53.970Z,15.90
2018-08-10T09:18:22.610Z,15.80
2018-08-10T09:20:51.138Z,15.80
2018-08-10T09:23:19.769Z,15.80
2018-08-10T09:25:48.293Z,15.80
2018-08-10T09:28:16.812Z,15.70
2018-08-10T09:30:45.374Z,15.60
2018-08-10T09:33:13.925Z,15.50
2018-08-10T09:35:42.452Z,15.50
2018-08-10T09:38:10.999Z,15.40
2018-08-10T09:40:39.554Z,15.50
2018-08-10T09:43:08.116Z,15.40
2018-08-10T09:45:36.928Z,15.50
2018-08-10T09:48:05.723Z,15.50
2018-08-10T09:50:34.201Z,15.50
2018-08-10T09:53:04.748Z,15.50
2018-08-10T09:55:37.124Z,15.40
2018-08-10T09:58:09.983Z,15.40
2018-08-10T10:00:43.766Z,15.40
2018-08-10T10:03:18.241Z,15.40
2018-08-10T10:05:54.792Z,15.30
2018-08-10T10:08:24.112Z,15.30
2018-08-10T10:10:52.672Z,15.20
2018-08-10T10:13:21.180Z,15.20
2018-08-10T10:15:49.749Z,15.20
2018-08-10T10:18:18.790Z,15.20
2018-08-10T10:20:48.163Z,15.30
2018-08-10T10:23:16.711Z,15.40
2018-08-10T10:25:45.251Z,15.40
2018-08-10T10:28:13.835Z,15.40
2018-08-10T10:30:42.370Z,15.20
2018-08-10T10:33:10.968Z,15.20
2018-08-10T10:35:39.602Z,15.20
2018-08-10T10:38:08.173Z,15.20
2018-08-10T10:40:36.695Z,15.10
2018-08-10T10:43:05.264Z,15.10
2018-08-10T10:45:33.858Z,15.20
2018-08-10T10:48:02.386Z,15.30
2018-08-10T10:50:31.051Z,15.30
2018-08-10T10:53:00.640Z,15.40
2018-08-10T10:55:29.272Z,15.50
2018-08-10T10:57:57.832Z,15.50
2018-08-10T11:00:26.318Z,15.50
2018-08-10T11:02:54.908Z,15.50
2018-08-10T11:05:23.403Z,15.50
2018-08-10T11:07:51.988Z,15.50
2018-08-10T11:10:20.733Z,15.60
2018-08-10T11:12:49.325Z,15.60
2018-08-10T11:15:17.915Z,15.60
2018-08-10T11:17:46.415Z,15.60
2018-08-10T11:20:15.035Z,15.60
2018-08-10T11:22:43.644Z,15.50
2018-08-10T11:25:13.459Z,15.50
2018-08-10T11:27:42.907Z,15.50
2018-08-10T11:30:11.852Z,15.50
2018-08-10T11:32:40.424Z,15.60
2018-08-10T11:35:09.501Z,15.60
2018-08-10T11:37:38.009Z,15.60
2018-08-10T11:40:10.085Z,15.60
2018-08-10T11:42:39.147Z,15.70
2018-08-10T11:45:09.910Z,15.70
2018-08-10T11:47:38.478Z,15.70
2018-08-10T11:50:07.385Z,15.70
2018-08-10T11:52:36.134Z,15.70
2018-08-10T11:55:05.399Z,15.80
2018-08-10T11:57:34.317Z,15.70
2018-08-10T12:00:03.057Z,15.70
2018-08-10T12:02:31.516Z,15.70
2018-08-10T12:05:00.073Z,15.70
2018-08-10T12:07:28.827Z,15.70
2018-08-10T12:09:57.707Z,15.70
2018-08-10T12:12:26.332Z,15.70
2018-08-10T12:14:54.841Z,15.70
2018-08-10T12:17:23.351Z,15.60
2018-08-10T12:19:52.374Z,15.70
2018-08-10T12:22:20.776Z,15.70
2018-08-10T12:24:49.329Z,15.80
2018-08-10T12:27:18.841Z,15.90
2018-08-10T12:29:47.448Z,15.80
2018-08-10T12:32:16.057Z,15.80
2018-08-10T12:34:44.647Z,15.90
2018-08-10T12:37:13.208Z,15.90
2018-08-10T12:39:41.731Z,16.00
2018-08-10T12:42:10.694Z,16.00
2018-08-10T12:44:39.288Z,16.10
2018-08-10T12:47:07.817Z,16.10
2018-08-10T12:49:36.328Z,16.10
2018-08-10T12:52:05.029Z,16.20
2018-08-10T12:54:33.603Z,16.20
2018-08-10T12:57:02.391Z,16.30
2018-08-10T12:59:31.110Z,16.20
2018-08-10T13:01:59.650Z,16.20
2018-08-10T13:04:28.415Z,16.20
2018-08-10T13:06:56.982Z,16.20
2018-08-10T13:09:25.494Z,16.20
2018-08-10T13:11:53.970Z,16.20
2018-08-10T13:14:22.497Z,16.20
2018-08-10T13:16:51.054Z,16.10
2018-08-10T13:19:19.600Z,16.10
2018-08-10T13:21:48.119Z,16.10
2018-08-10T13:24:17.065Z,16.10
2018-08-10T13:26:45.597Z,16.00
2018-08-10T13:29:14.121Z,16.00
2018-08-10T13:31:42.628Z,16.00
2018-08-10T13:34:11.230Z,15.90
2018-08-10T13:36:39.729Z,15.90
2018-08-10T13:39:10.575Z,16.00
2018-08-10T13:41:39.783Z,16.10
2018-08-10T13:44:08.769Z,16.10
2018-08-10T13:46:37.290Z,16.00
2018-08-10T13:49:05.845Z,16.00
2018-08-10T13:51:34.353Z,15.90
2018-08-10T13:54:02.988Z,16.00
2018-08-10T13:56:32.154Z,16.00
2018-08-10T13:59:00.725Z,16.00
2018-08-10T14:01:29.447Z,16.10
2018-08-10T14:03:58.237Z,16.10
2018-08-10T14:06:27.037Z,16.10
2018-08-10T14:08:55.552Z,16.10
2018-08-10T14:11:25.052Z,16.10
2018-08-10T14:13:53.624Z,16.20
2018-08-10T14:16:22.242Z,16.30
2018-08-10T14:18:50.824Z,16.30
2018-08-10T14:21:19.428Z,16.40
2018-08-10T14:23:47.942Z,16.40
2018-08-10T14:26:16.729Z,16.40
2018-08-10T14:28:45.349Z,16.30
2018-08-10T14:31:13.972Z,16.40
2018-08-10T14:33:42.773Z,16.40
2018-08-10T14:36:11.396Z,16.30
2018-08-10T14:38:40.023Z,16.30
2018-08-10T14:41:09.458Z,16.30
2018-08-10T14:43:38.040Z,16.30
2018-08-10T14:46:07.161Z,16.30
2018-08-10T14:48:36.304Z,16.30
2018-08-10T14:51:05.567Z,16.30
2018-08-10T14:53:34.252Z,16.40
2018-08-10T14:56:02.847Z,16.30
2018-08-10T14:58:31.415Z,16.30
2018-08-10T15:01:00.067Z,16.40
2018-08-10T15:03:28.737Z,16.40
2018-08-10T15:05:57.272Z,16.40
2018-08-10T15:08:25.968Z,16.40
2018-08-10T15:10:54.684Z,16.40
2018-08-10T15:13:23.347Z,16.40
2018-08-10T15:15:51.849Z,16.50
2018-08-10T15:18:20.532Z,16.40
2018-08-10T15:20:49.163Z,16.40
2018-08-10T15:23:17.801Z,16.30
2018-08-10T15:25:46.375Z,16.30
2018-08-10T15:28:15.013Z,16.30
2018-08-10T15:30:43.607Z,16.20
2018-08-10T15:33:12.240Z,16.30
2018-08-10T15:35:40.907Z,16.30
2018-08-10T15:38:09.968Z,16.30
2018-08-10T15:40:38.530Z,16.30
2018-08-10T15:43:07.236Z,16.30
2018-08-10T15:45:36.026Z,16.30
2018-08-10T15:48:04.744Z,16.30
2018-08-10T15:50:33.708Z,16.30
2018-08-10T15:53:03.114Z,16.30
2018-08-10T15:55:31.906Z,16.30
2018-08-10T15:58:00.769Z,16.30
2018-08-10T16:00:29.481Z,16.30
2018-08-10T16:02:58.128Z,16.30
2018-08-10T16:05:26.803Z,16.30
2018-08-10T16:07:56.901Z,16.30
2018-08-10T16:10:25.702Z,16.30
2018-08-10T16:12:54.258Z,16.30
2018-08-10T16:15:22.968Z,16.30
2018-08-10T16:17:51.641Z,16.30
2018-08-10T16:20:21.817Z,16.40
2018-08-10T16:22:50.987Z,16.40
2018-08-10T16:25:19.567Z,16.40
2018-08-10T16:27:48.203Z,16.40
2018-08-10T16:30:17.439Z,16.40
2018-08-10T16:32:47.062Z,16.40
2018-08-10T16:35:16.177Z,16.40
2018-08-10T16:37:45.789Z,16.40
2018-08-10T16:40:16.429Z,16.40
2018-08-10T16:42:45.102Z,16.40
2018-08-10T16:45:14.431Z,16.40
2018-08-10T16:47:43.421Z,16.50
2018-08-10T16:50:15.200Z,16.50
2018-08-10T16:52:44.379Z,16.50
2018-08-10T16:55:14.938Z,16.50
2018-08-10T16:57:44.465Z,16.50
2018-08-10T17:00:15.188Z,16.50
2018-08-10T17:02:44.193Z,16.50
2018-08-10T17:05:12.948Z,16.50
2018-08-10T17:07:41.940Z,16.50
2018-08-10T17:10:11.060Z,16.50
2018-08-10T17:12:41.087Z,16.40
2018-08-10T17:15:15.016Z,16.40
2018-08-10T17:17:44.620Z,16.50
2018-08-10T17:20:13.947Z,16.40
2018-08-10T17:22:42.983Z,16.40
2018-08-10T17:25:13.318Z,16.40
2018-08-10T17:27:41.903Z,16.40
2018-08-10T17:30:14.783Z,16.40
2018-08-10T17:32:43.489Z,16.40
2018-08-10T17:35:13.511Z,16.30
2018-08-10T17:37:43.152Z,16.30
2018-08-10T17:40:11.861Z,16.30
2018-08-10T17:42:40.554Z,16.30
2018-08-10T17:45:11.588Z,16.20
2018-08-10T17:47:40.484Z,16.20
2018-08-10T17:50:11.938Z,16.20
2018-08-10T17:52:42.877Z,16.20
2018-08-10T17:55:12.031Z,16.20
2018-08-10T17:57:40.758Z,16.30
2018-08-10T18:00:12.144Z,16.30
2018-08-10T18:02:40.735Z,16.30
2018-08-10T18:05:11.872Z,16.30
2018-08-10T18:07:40.702Z,16.30
2018-08-10T18:10:10.434Z,16.30
2018-08-10T18:12:40.226Z,16.30
2018-08-10T18:15:11.051Z,16.30
2018-08-10T18:17:40.590Z,16.30
2018-08-10T18:20:12.795Z,16.30
2018-08-10T18:22:41.822Z,16.30
2018-08-10T18:25:12.150Z,16.30
2018-08-10T18:27:42.427Z,16.30
2018-08-10T18:30:14.964Z,16.30
2018-08-10T18:32:43.799Z,16.30
2018-08-10T18:35:16.129Z,16.30
2018-08-10T18:37:45.486Z,16.30
2018-08-10T18:40:15.202Z,16.30
2018-08-10T18:42:44.809Z,16.20
2018-08-10T18:45:15.190Z,16.20
2018-08-10T18:47:44.121Z,16.20
2018-08-10T18:50:14.227Z,16.20
2018-08-10T18:52:43.275Z,16.20
2018-08-10T18:55:14.132Z,16.20
2018-08-10T18:57:42.988Z,16.20
2018-08-10T19:00:15.581Z,16.20
2018-08-10T19:02:44.551Z,16.20
2018-08-10T19:05:14.556Z,16.20
2018-08-10T19:07:44.597Z,16.20
2018-08-10T19:10:16.526Z,16.20
2018-08-10T19:12:45.884Z,16.10
2018-08-10T19:15:14.979Z,16.10
2018-08-10T19:17:45.777Z,16.10
2018-08-10T19:20:16.226Z,16.10
2018-08-10T19:22:46.083Z,16.10
2018-08-10T19:25:16.005Z,16.10
2018-08-10T19:27:45.102Z,16.10
2018-08-10T19:30:19.189Z,16.10
2018-08-10T19:32:49.029Z,16.10
2018-08-10T19:35:19.471Z,16.10
2018-08-10T19:37:48.724Z,16.10
2018-08-10T19:40:19.217Z,16.10
2018-08-10T19:42:48.541Z,16.10
2018-08-10T19:45:18.329Z,16.10
2018-08-10T19:47:47.473Z,16.10
2018-08-10T19:50:18.140Z,16.10
2018-08-10T19:52:47.064Z,16.10
2018-08-10T19:55:16.266Z,16.10
2018-08-10T19:57:46.262Z,16.10
2018-08-10T20:00:17.185Z,16.10
2018-08-10T20:02:48.954Z,16.10
2018-08-10T20:05:19.078Z,16.20
2018-08-10T20:07:48.474Z,16.20
2018-08-10T20:10:17.577Z,16.20
2018-08-10T20:12:47.372Z,16.10
2018-08-10T20:15:17.466Z,16.10
2018-08-10T20:17:47.188Z,16.10
2018-08-10T20:20:17.826Z,16.10
2018-08-10T20:22:47.318Z,16.10
2018-08-10T20:25:16.873Z,16.00
2018-08-10T20:27:47.956Z,16.00
2018-08-10T20:30:18.414Z,16.00
2018-08-10T20:32:48.134Z,16.00
2018-08-10T20:35:19.094Z,16.00
2018-08-10T20:37:48.409Z,16.00
2018-08-10T20:40:18.588Z,16.00
2018-08-10T20:42:48.167Z,16.00
2018-08-10T20:45:18.047Z,16.00
2018-08-10T20:47:47.447Z,15.90
2018-08-10T20:50:20.044Z,15.90
2018-08-10T20:52:49.320Z,15.90
2018-08-10T20:55:19.110Z,15.90
2018-08-10T20:57:48.210Z,15.90
2018-08-10T21:00:18.432Z,15.90
2018-08-10T21:02:47.242Z,15.80
2018-08-10T21:05:16.046Z,15.90
2018-08-10T21:07:45.080Z,15.90
2018-08-10T21:10:15.085Z,15.90
2018-08-10T21:12:44.604Z,15.90
2018-08-10T21:15:14.474Z,15.90
2018-08-10T21:17:43.726Z,15.90
2018-08-10T21:20:14.856Z,16.00
2018-08-10T21:22:43.474Z,16.00
2018-08-10T21:25:12.861Z,15.90
2018-08-10T21:27:42.244Z,16.00
2018-08-10T21:30:15.415Z,16.00
2018-08-10T21:32:44.119Z,16.00
2018-08-10T21:35:12.825Z,15.90
2018-08-10T21:37:41.552Z,15.90
2018-08-10T21:40:10.927Z,15.90
2018-08-10T21:42:40.164Z,15.90
2018-08-10T21:45:09.020Z,15.90
2018-08-10T21:47:38.505Z,15.90
2018-08-10T21:50:10.489Z,15.90
2018-08-10T21:52:39.021Z,15.90
2018-08-10T21:55:07.618Z,15.90
2018-08-10T21:57:36.257Z,15.90
2018-08-10T22:00:09.539Z,16.00
2018-08-10T22:02:38.136Z,16.00
2018-08-10T22:05:06.805Z,16.00
2018-08-10T22:07:35.420Z,16.00
2018-08-10T22:10:04.273Z,16.00
2018-08-10T22:12:37.075Z,16.00
2018-08-10T22:15:12.455Z,15.90
2018-08-10T22:18:48.021Z,16.00
2018-08-10T22:21:16.525Z,16.00
2018-08-10T22:23:45.051Z,16.00
2018-08-10T22:26:13.567Z,16.00
2018-08-10T22:28:42.069Z,15.90
2018-08-10T22:31:10.679Z,15.90
2018-08-10T22:33:39.188Z,15.90
2018-08-10T22:36:07.742Z,15.90
2018-08-10T22:38:36.221Z,15.90
2018-08-10T22:41:04.683Z,15.90
2018-08-10T22:43:34.175Z,15.90
2018-08-10T22:46:02.659Z,15.90
2018-08-10T22:48:31.203Z,15.80
2018-08-10T22:50:59.710Z,15.80
2018-08-10T22:53:28.256Z,15.70
2018-08-10T22:55:57.379Z,15.60
2018-08-10T22:58:25.821Z,15.60
2018-08-10T23:00:54.305Z,15.60
2018-08-10T23:03:22.920Z,15.60
2018-08-10T23:05:51.465Z,15.50
2018-08-10T23:08:20.074Z,15.50
2018-08-10T23:10:48.545Z,15.50
2018-08-10T23:13:17.048Z,15.50
2018-08-10T23:15:45.578Z,15.40
2018-08-10T23:18:14.080Z,15.40
2018-08-10T23:20:42.619Z,15.40
2018-08-10T23:23:11.216Z,15.30
2018-08-10T23:25:39.917Z,15.30
2018-08-10T23:28:08.404Z,15.30
2018-08-10T23:30:36.940Z,15.30
2018-08-10T23:33:05.592Z,15.20
2018-08-10T23:35:34.075Z,15.10
2018-08-10T23:38:02.632Z,15.10
2018-08-10T23:40:31.132Z,15.10
2018-08-10T23:42:59.648Z,15.10
2018-08-10T23:45:28.122Z,15.00
2018-08-10T23:47:56.606Z,14.90
2018-08-10T23:50:25.216Z,14.80
2018-08-10T23:52:53.890Z,14.80
2018-08-10T23:55:22.414Z,14.80
2018-08-10T23:57:50.933Z,14.80
